Time;durP1;ratioP1;P1;durP2;ratioP2;P2;SDS_P1;SDS_P2;PMS_P1;PMS_P2;Temp;Humidity;BMP_temperature;BMP_pressure;BME280_temperature;BME280_humidity;BME280_pressure;Samples;Min_cycle;Max_cycle;Signal;HPM_P1;HPM_P2
2022/01/03 00:00:35;;;;;;;27.00;20.30;;;8.60;99.90;;;;;;4991297;28;20730;-74
2022/01/03 00:03:06;;;;;;;25.90;20.63;;;8.70;99.90;;;;;;4990853;28;20496;-74
2022/01/03 00:05:33;;;;;;;27.73;20.37;;;8.70;99.90;;;;;;4990446;28;20503;-75
2022/01/03 00:08:00;;;;;;;28.60;20.77;;;8.60;99.90;;;;;;4991053;28;20463;-75
2022/01/03 00:10:27;;;;;;;32.93;22.47;;;8.60;99.90;;;;;;4990788;28;20463;-73
2022/01/03 00:12:55;;;;;;;33.27;22.10;;;8.40;99.90;;;;;;4990591;28;20725;-74
2022/01/03 00:15:23;;;;;;;30.87;22.17;;;8.50;99.90;;;;;;4990343;28;20480;-75
2022/01/03 00:17:53;;;;;;;29.97;22.63;;;8.50;99.90;;;;;;4990886;28;20487;-74
2022/01/03 00:20:21;;;;;;;30.53;22.20;;;8.50;99.90;;;;;;4990819;28;20516;-75
2022/01/03 00:22:53;;;;;;;29.07;22.30;;;8.50;99.90;;;;;;4990812;28;20459;-75
2022/01/03 00:25:22;;;;;;;27.63;20.80;;;8.50;99.90;;;;;;5008817;28;20483;-76
2022/01/03 00:27:57;;;;;;;28.60;20.90;;;8.40;99.90;;;;;;5010234;28;20462;-75
2022/01/03 00:30:25;;;;;;;30.53;22.20;;;8.40;99.90;;;;;;5010188;28;20463;-74
2022/01/03 00:32:54;;;;;;;32.00;23.23;;;8.30;99.90;;;;;;5010090;28;20505;-73
2022/01/03 00:35:22;;;;;;;34.60;23.70;;;8.30;99.90;;;;;;5010009;28;20542;-75
2022/01/03 00:37:49;;;;;;;30.30;21.73;;;8.30;99.90;;;;;;5010146;28;20466;-75
2022/01/03 00:40:19;;;;;;;34.10;21.87;;;8.30;99.90;;;;;;5009862;28;20448;-74
2022/01/03 00:42:47;;;;;;;28.10;19.90;;;8.10;99.90;;;;;;5009759;28;20463;-74
2022/01/03 00:45:14;;;;;;;29.17;21.70;;;8.20;99.90;;;;;;5009832;28;20585;-74
2022/01/03 00:47:41;;;;;;;32.53;20.83;;;8.20;99.90;;;;;;5009984;28;20470;-75
2022/01/03 00:50:12;;;;;;;27.90;19.00;;;8.10;99.90;;;;;;5009395;28;20516;-74
2022/01/03 00:52:39;;;;;;;28.53;20.40;;;8.10;99.90;;;;;;5009811;28;20498;-76
2022/01/03 00:55:07;;;;;;;24.60;19.43;;;8.10;99.90;;;;;;5009769;28;20482;-74
2022/01/03 00:57:52;;;;;;;22.40;16.87;;;8.20;99.90;;;;;;5010753;28;20492;-74
2022/01/03 01:00:20;;;;;;;26.90;19.80;;;8.10;99.90;;;;;;5011251;28;20964;-74
2022/01/03 01:02:57;;;;;;;26.67;20.57;;;8.00;99.90;;;;;;5011633;28;20451;-75
2022/01/03 01:05:25;;;;;;;28.33;20.07;;;8.00;99.90;;;;;;5011922;28;20501;-74
2022/01/03 01:07:56;;;;;;;23.67;17.10;;;8.00;99.90;;;;;;5009646;28;20460;-74
2022/01/03 01:10:28;;;;;;;22.77;16.80;;;7.90;99.90;;;;;;5009537;28;20538;-75
2022/01/03 01:12:55;;;;;;;22.57;17.60;;;7.70;99.90;;;;;;5009611;28;20492;-74
2022/01/03 01:15:24;;;;;;;25.30;18.93;;;7.70;99.90;;;;;;5008866;28;21003;-75
2022/01/03 01:17:53;;;;;;;29.13;20.07;;;7.70;99.90;;;;;;5009337;28;20451;-74
2022/01/03 01:20:21;;;;;;;28.70;18.80;;;7.70;99.90;;;;;;5009063;28;21006;-73
2022/01/03 01:22:50;;;;;;;24.03;20.10;;;7.60;99.90;;;;;;5009557;28;20499;-74
2022/01/03 01:27:45;;;;;;;31.47;23.17;;;7.60;99.90;;;;;;5009077;28;20496;-74
2022/01/03 01:28:13;;;;;;;32.30;20.87;;;7.70;99.90;;;;;;5009192;28;20452;-72
2022/01/03 01:30:41;;;;;;;25.83;18.83;;;7.60;99.90;;;;;;5009379;28;20458;-74
2022/01/03 01:33:11;;;;;;;24.57;18.93;;;7.60;99.90;;;;;;5009333;28;20496;-74
2022/01/03 01:35:43;;;;;;;27.77;19.10;;;7.60;99.90;;;;;;5009522;28;20556;-74
2022/01/03 01:38:15;;;;;;;28.57;19.63;;;7.50;99.90;;;;;;5009495;28;21006;-74
2022/01/03 01:40:45;;;;;;;25.40;18.87;;;7.50;99.90;;;;;;5008904;28;20458;-73
2022/01/03 01:43:14;;;;;;;28.93;19.33;;;7.60;99.90;;;;;;5009004;28;20549;-74
2022/01/03 01:45:43;;;;;;;23.17;18.17;;;7.60;99.90;;;;;;5009060;28;20812;-74
2022/01/03 01:48:13;;;;;;;25.00;18.77;;;7.70;99.90;;;;;;5009354;28;20892;-75
2022/01/03 01:50:42;;;;;;;23.63;18.50;;;7.80;99.90;;;;;;5009259;28;20458;-75
2022/01/03 01:53:13;;;;;;;23.43;17.90;;;7.80;99.90;;;;;;5009145;28;20613;-74
2022/01/03 01:55:45;;;;;;;23.80;18.70;;;7.90;99.90;;;;;;5009131;28;20485;-75
2022/01/03 01:58:24;;;;;;;21.43;16.37;;;8.00;99.90;;;;;;5009298;28;20459;-74
2022/01/03 02:01:01;;;;;;;29.37;20.93;;;8.10;99.90;;;;;;5010695;28;20458;-74
2022/01/03 02:03:38;;;;;;;23.20;18.40;;;8.20;99.90;;;;;;5012758;28;20454;-74
2022/01/03 02:06:33;;;;;;;23.93;18.20;;;7.90;99.90;;;;;;5012704;28;20619;-75
2022/01/03 02:09:08;;;;;;;29.20;19.17;;;7.90;99.90;;;;;;4997575;28;20492;-74
2022/01/03 02:11:49;;;;;;;27.90;19.10;;;8.00;99.90;;;;;;5012825;28;20462;-75
2022/01/03 02:14:17;;;;;;;26.40;18.17;;;8.00;99.90;;;;;;5012577;28;20585;-76
2022/01/03 02:16:44;;;;;;;24.30;19.37;;;8.00;99.90;;;;;;5012609;28;21017;-74
2022/01/03 02:19:11;;;;;;;25.93;18.07;;;7.90;99.90;;;;;;5012563;28;20834;-73
2022/01/03 02:21:40;;;;;;;23.00;17.40;;;7.70;99.90;;;;;;5012552;28;20517;-73
2022/01/03 02:24:08;;;;;;;22.37;18.13;;;7.50;99.90;;;;;;5012399;28;20453;-73
2022/01/03 02:26:35;;;;;;;26.50;18.20;;;7.40;99.90;;;;;;5012407;28;20931;-74
2022/01/03 02:29:02;;;;;;;21.70;17.50;;;7.50;99.90;;;;;;5012212;28;20512;-75
2022/01/03 02:31:29;;;;;;;27.33;17.83;;;7.40;99.90;;;;;;5012334;28;20462;-73
2022/01/03 02:33:57;;;;;;;23.17;16.50;;;7.50;99.90;;;;;;5012210;28;20566;-74
2022/01/03 02:36:24;;;;;;;23.87;17.40;;;7.80;99.90;;;;;;5012319;28;21225;-74
2022/01/03 02:38:52;;;;;;;27.00;18.80;;;7.90;99.90;;;;;;5012778;28;20954;-74
2022/01/03 02:41:19;;;;;;;24.70;19.97;;;8.00;99.90;;;;;;5012301;28;20454;-74
2022/01/03 02:43:46;;;;;;;23.10;17.93;;;8.10;99.90;;;;;;5012016;28;20469;-73
2022/01/03 02:46:14;;;;;;;29.00;20.53;;;7.90;99.90;;;;;;5011767;28;20487;-75
2022/01/03 02:48:41;;;;;;;26.03;20.27;;;7.70;99.90;;;;;;5012122;28;20461;-73
2022/01/03 02:51:08;;;;;;;29.27;19.10;;;7.70;99.90;;;;;;5011474;28;20951;-74
2022/01/03 02:53:35;;;;;;;26.80;20.10;;;7.70;99.90;;;;;;5011664;28;20486;-75
2022/01/03 02:56:04;;;;;;;30.50;22.43;;;7.90;99.90;;;;;;5011866;28;20893;-76
2022/01/03 02:58:31;;;;;;;28.87;21.00;;;7.90;99.90;;;;;;5012081;28;20450;-74
2022/01/03 03:00:58;;;;;;;29.40;19.83;;;7.80;99.90;;;;;;5011990;28;20464;-74
2022/01/03 03:03:25;;;;;;;25.47;19.40;;;7.80;99.90;;;;;;5011775;28;20466;-74
2022/01/03 03:05:53;;;;;;;25.10;17.80;;;7.90;99.90;;;;;;5009762;28;20539;-74
2022/01/03 03:08:20;;;;;;;30.67;19.67;;;7.90;99.90;;;;;;5011746;28;20466;-75
2022/01/03 03:10:47;;;;;;;24.43;18.90;;;7.80;99.90;;;;;;5011490;28;20461;-74
2022/01/03 03:13:16;;;;;;;25.47;18.93;;;7.80;99.90;;;;;;5011014;28;20547;-75
2022/01/03 03:15:43;;;;;;;24.47;17.43;;;7.90;99.90;;;;;;5011277;28;20473;-74
2022/01/03 03:18:10;;;;;;;25.70;17.33;;;7.80;99.90;;;;;;5011678;28;20936;-75
2022/01/03 03:20:38;;;;;;;21.87;17.33;;;7.70;99.90;;;;;;5011347;28;20540;-76
2022/01/03 03:23:05;;;;;;;27.00;19.20;;;7.70;99.90;;;;;;5011105;28;20455;-74
2022/01/03 03:25:34;;;;;;;24.23;16.57;;;7.70;99.90;;;;;;5011058;28;20477;-73
2022/01/03 03:28:03;;;;;;;25.37;18.20;;;7.70;99.90;;;;;;5011249;28;20553;-74
2022/01/03 03:30:33;;;;;;;24.90;16.77;;;7.60;99.90;;;;;;5011414;28;20923;-73
2022/01/03 03:33:03;;;;;;;21.83;17.33;;;7.40;99.90;;;;;;5011094;28;20458;-75
2022/01/03 03:35:30;;;;;;;24.40;18.10;;;7.40;99.90;;;;;;5010983;28;20572;-73
2022/01/03 03:37:57;;;;;;;24.40;18.93;;;7.40;99.90;;;;;;5011250;28;20857;-74
2022/01/03 03:40:24;;;;;;;24.07;17.17;;;7.60;99.90;;;;;;5011059;28;20485;-73
2022/01/03 03:42:52;;;;;;;27.70;16.40;;;7.70;99.90;;;;;;5013466;28;20510;-74
2022/01/03 03:45:19;;;;;;;21.87;16.93;;;7.70;99.90;;;;;;5012597;28;20478;-74
2022/01/03 03:47:48;;;;;;;21.30;15.40;;;7.60;99.90;;;;;;5013432;28;20454;-73
2022/01/03 03:50:16;;;;;;;23.00;16.37;;;7.50;99.90;;;;;;5011886;28;20453;-74
2022/01/03 03:52:43;;;;;;;22.10;16.83;;;7.50;99.90;;;;;;5010801;28;20454;-74
2022/01/03 03:55:11;;;;;;;20.80;15.83;;;7.40;99.90;;;;;;5010574;28;20551;-74
2022/01/03 03:57:38;;;;;;;22.67;15.77;;;7.50;99.90;;;;;;5011231;28;20454;-74
2022/01/03 04:00:08;;;;;;;21.57;16.43;;;7.60;99.90;;;;;;5010460;28;20871;-76
2022/01/03 04:02:35;;;;;;;20.93;16.43;;;7.70;99.90;;;;;;5010396;28;20461;-74
2022/01/03 04:05:04;;;;;;;17.57;14.77;;;7.70;99.90;;;;;;5010183;28;20544;-74
2022/01/03 04:07:31;;;;;;;22.23;15.63;;;7.80;99.90;;;;;;5010752;28;20820;-75
2022/01/03 04:09:58;;;;;;;21.10;16.47;;;7.70;99.90;;;;;;5010561;28;20455;-74
2022/01/03 04:12:25;;;;;;;23.77;17.17;;;7.90;99.90;;;;;;5010481;28;20540;-76
2022/01/03 04:14:52;;;;;;;23.93;16.80;;;8.00;99.90;;;;;;5010075;28;20970;-74
2022/01/03 04:17:19;;;;;;;19.57;16.57;;;7.90;99.90;;;;;;5010155;28;20536;-74
2022/01/03 04:19:46;;;;;;;20.53;15.53;;;7.80;99.90;;;;;;5010569;28;20534;-73
2022/01/03 04:22:14;;;;;;;25.07;17.33;;;7.70;99.90;;;;;;5010533;28;20512;-75
2022/01/03 04:24:41;;;;;;;20.00;15.63;;;7.60;99.90;;;;;;5009113;28;20986;-74
2022/01/03 04:27:08;;;;;;;20.83;15.33;;;7.70;99.90;;;;;;5010442;28;20469;-74
2022/01/03 04:29:35;;;;;;;22.40;17.20;;;7.80;99.90;;;;;;5010283;28;20466;-73
2022/01/03 04:32:03;;;;;;;24.63;17.17;;;7.90;99.90;;;;;;5010232;28;20463;-75
2022/01/03 04:34:30;;;;;;;19.70;15.50;;;7.90;99.90;;;;;;5009958;28;20502;-74
2022/01/03 04:36:57;;;;;;;22.90;15.80;;;7.80;99.90;;;;;;5010214;28;20459;-75
2022/01/03 04:39:26;;;;;;;22.10;17.20;;;7.70;99.90;;;;;;5009934;28;20536;-75
2022/01/03 04:41:53;;;;;;;21.90;16.10;;;7.70;99.90;;;;;;5010396;28;20930;-75
2022/01/03 04:44:20;;;;;;;21.03;16.00;;;7.50;99.90;;;;;;5010074;28;20458;-73
2022/01/03 04:46:47;;;;;;;21.30;16.73;;;7.60;99.90;;;;;;5009741;28;20523;-75
2022/01/03 04:49:14;;;;;;;29.67;20.13;;;7.50;99.90;;;;;;5010291;28;20814;-74
2022/01/03 04:51:41;;;;;;;22.50;15.40;;;7.50;99.90;;;;;;5009935;28;20466;-75
2022/01/03 04:54:09;;;;;;;23.80;16.40;;;7.50;99.90;;;;;;5009767;28;20494;-74
2022/01/03 04:56:37;;;;;;;21.27;16.73;;;7.30;99.90;;;;;;5009471;28;20457;-74
2022/01/03 04:59:05;;;;;;;25.60;18.57;;;7.00;99.90;;;;;;5009733;28;20474;-75
2022/01/03 05:01:32;;;;;;;20.20;15.80;;;6.80;99.90;;;;;;5008340;28;20466;-75
2022/01/03 05:03:59;;;;;;;21.47;15.80;;;7.20;99.90;;;;;;5009912;28;20478;-76
2022/01/03 05:06:26;;;;;;;21.80;14.83;;;7.30;99.90;;;;;;5009388;28;20501;-74
2022/01/03 05:08:53;;;;;;;20.13;15.77;;;7.40;99.90;;;;;;5009645;28;20482;-75
2022/01/03 05:11:20;;;;;;;24.80;16.60;;;7.30;99.90;;;;;;5009728;28;20465;-74
2022/01/03 05:13:49;;;;;;;19.03;14.60;;;7.60;99.90;;;;;;5009616;28;20498;-75
2022/01/03 05:16:16;;;;;;;21.80;15.10;;;7.70;99.90;;;;;;5009451;28;20830;-74
2022/01/03 05:18:43;;;;;;;22.13;16.97;;;7.60;99.90;;;;;;5009810;28;20865;-74
2022/01/03 05:21:10;;;;;;;22.67;17.00;;;7.50;99.90;;;;;;5009765;28;20459;-75
2022/01/03 05:23:38;;;;;;;21.50;15.87;;;7.50;99.90;;;;;;5009512;28;20447;-74
2022/01/03 05:26:06;;;;;;;22.87;17.13;;;7.40;99.90;;;;;;5009381;28;20462;-74
2022/01/03 05:28:33;;;;;;;22.07;16.20;;;7.60;99.90;;;;;;5009605;28;20484;-74
2022/01/03 05:31:01;;;;;;;18.83;15.73;;;7.60;99.90;;;;;;5009485;28;20970;-76
2022/01/03 05:33:29;;;;;;;20.33;14.97;;;7.60;99.90;;;;;;5009485;28;20935;-74
2022/01/03 05:35:56;;;;;;;20.87;15.73;;;7.50;99.90;;;;;;5010862;28;20457;-74
2022/01/03 05:38:23;;;;;;;21.83;15.90;;;7.50;99.90;;;;;;5013022;28;20482;-74
2022/01/03 05:40:50;;;;;;;20.43;14.80;;;7.60;99.90;;;;;;5013443;28;20537;-74
2022/01/03 05:43:17;;;;;;;27.03;15.70;;;7.60;99.90;;;;;;5013647;28;20457;-73
2022/01/03 05:45:45;;;;;;;23.60;16.73;;;7.50;99.90;;;;;;5013014;28;20451;-74
2022/01/03 05:48:13;;;;;;;23.67;15.47;;;7.40;99.90;;;;;;5013364;28;20481;-73
2022/01/03 05:50:40;;;;;;;20.03;14.50;;;7.50;99.90;;;;;;5012879;28;20953;-75
2022/01/03 05:53:07;;;;;;;25.03;17.40;;;7.50;99.90;;;;;;5012758;28;20459;-75
2022/01/03 05:55:34;;;;;;;19.67;15.90;;;7.50;99.90;;;;;;5012796;28;20498;-73
2022/01/03 05:58:01;;;;;;;16.43;13.83;;;7.60;99.90;;;;;;5012792;28;20477;-75
2022/01/03 06:00:30;;;;;;;21.20;15.17;;;7.60;99.90;;;;;;5013239;28;20858;-74
2022/01/03 06:02:58;;;;;;;21.70;15.80;;;7.70;99.90;;;;;;5013123;28;20543;-73
2022/01/03 06:05:42;;;;;;;21.77;15.43;;;7.70;99.90;;;;;;5012259;28;20988;-76
2022/01/03 06:08:09;;;;;;;21.33;15.13;;;7.70;99.90;;;;;;5012890;28;20507;-73
2022/01/03 06:10:40;;;;;;;21.03;14.97;;;7.70;99.90;;;;;;5012970;28;20532;-78
2022/01/03 06:13:08;;;;;;;19.17;14.47;;;7.60;99.90;;;;;;5012897;28;20540;-75
2022/01/03 06:15:38;;;;;;;18.90;14.40;;;7.70;99.90;;;;;;5012628;28;20828;-76
2022/01/03 06:18:05;;;;;;;18.77;15.10;;;7.80;99.90;;;;;;5012640;28;20510;-74
2022/01/03 06:20:34;;;;;;;22.00;17.33;;;7.90;99.90;;;;;;5012490;28;20553;-73
2022/01/03 06:23:01;;;;;;;20.57;15.13;;;8.00;99.90;;;;;;5012101;28;20463;-75
2022/01/03 06:25:28;;;;;;;23.37;15.87;;;8.00;99.90;;;;;;5012417;28;20453;-72
2022/01/03 06:27:55;;;;;;;23.40;16.07;;;8.00;99.90;;;;;;5012728;28;20599;-74
2022/01/03 06:30:23;;;;;;;19.40;15.57;;;8.10;99.90;;;;;;5013075;28;20458;-74
2022/01/03 06:32:50;;;;;;;18.53;14.67;;;7.90;99.90;;;;;;5013332;28;20454;-73
2022/01/03 06:35:17;;;;;;;20.97;14.63;;;7.80;99.90;;;;;;5012251;28;20495;-72
2022/01/03 06:37:46;;;;;;;19.33;15.63;;;7.80;99.90;;;;;;5012063;28;20493;-74
2022/01/03 06:40:15;;;;;;;20.60;17.30;;;7.90;99.90;;;;;;5012398;28;20453;-74
2022/01/03 06:42:42;;;;;;;26.60;19.37;;;7.90;99.90;;;;;;5012386;28;20521;-74
2022/01/03 06:45:10;;;;;;;32.57;18.63;;;7.80;99.90;;;;;;5010729;28;20450;-74
2022/01/03 06:47:37;;;;;;;28.43;19.13;;;7.70;99.90;;;;;;5010834;28;20874;-71
2022/01/03 06:50:05;;;;;;;26.77;18.03;;;7.60;99.90;;;;;;5012447;28;20814;-74
2022/01/03 06:52:32;;;;;;;25.90;18.37;;;7.80;99.90;;;;;;5012038;28;20466;-73
2022/01/03 06:55:01;;;;;;;26.80;19.83;;;7.60;99.90;;;;;;5012346;28;20490;-72
2022/01/03 06:57:29;;;;;;;23.93;17.87;;;7.70;99.90;;;;;;5011871;28;20473;-73
2022/01/03 06:59:56;;;;;;;23.37;18.77;;;7.60;99.90;;;;;;5011571;28;20462;-75
2022/01/03 07:02:23;;;;;;;21.33;17.03;;;7.60;99.90;;;;;;5011715;28;20851;-74
2022/01/03 07:04:50;;;;;;;22.63;17.57;;;7.70;99.90;;;;;;5010306;28;20468;-73
2022/01/03 07:07:17;;;;;;;29.80;18.93;;;7.50;99.90;;;;;;5011141;28;20553;-75
2022/01/03 07:09:44;;;;;;;25.60;19.27;;;7.30;99.90;;;;;;5011678;28;20466;-73
2022/01/03 07:12:13;;;;;;;24.30;18.30;;;7.40;99.90;;;;;;5011288;28;20463;-72
2022/01/03 07:20:10;;;;;;;28.07;18.20;;;7.90;99.90;;;;;;5011087;28;20808;-74
2022/01/03 07:22:40;;;;;;;36.97;23.40;;;8.20;99.90;;;;;;5011353;28;20549;-73
2022/01/03 07:25:08;;;;;;;46.70;28.90;;;8.30;99.90;;;;;;5010501;28;20461;-73
2022/01/03 07:27:37;;;;;;;26.43;16.93;;;8.30;99.90;;;;;;5011338;28;20855;-72
2022/01/03 07:30:05;;;;;;;29.97;16.80;;;8.30;99.90;;;;;;5011382;28;21142;-73
2022/01/03 07:32:32;;;;;;;26.80;18.23;;;8.30;99.90;;;;;;5011452;28;20505;-73
2022/01/03 07:35:00;;;;;;;25.10;16.40;;;8.20;99.90;;;;;;5011322;28;20485;-73
2022/01/03 07:37:27;;;;;;;21.57;15.10;;;8.20;99.90;;;;;;5011023;28;20473;-74
2022/01/03 07:39:54;;;;;;;20.40;16.03;;;8.40;99.90;;;;;;5011237;28;20509;-72
2022/01/03 07:42:21;;;;;;;20.30;15.20;;;8.60;99.90;;;;;;5011204;28;20959;-74
2022/01/03 07:44:50;;;;;;;24.60;17.57;;;8.80;99.90;;;;;;5010739;28;21002;-73
2022/01/03 07:47:17;;;;;;;37.03;18.13;;;9.00;99.90;;;;;;5011182;28;20843;-74
2022/01/03 07:49:44;;;;;;;18.97;16.40;;;9.20;99.90;;;;;;5010730;28;20463;-74
2022/01/03 07:52:11;;;;;;;19.03;14.60;;;9.50;99.90;;;;;;5010817;28;20936;-73
2022/01/03 07:54:38;;;;;;;20.33;14.03;;;9.50;99.90;;;;;;5010856;28;20538;-72
2022/01/03 07:57:05;;;;;;;19.40;14.90;;;9.70;99.90;;;;;;5010745;28;20820;-74
2022/01/03 07:59:32;;;;;;;21.67;15.63;;;9.90;99.90;;;;;;5010405;28;20518;-73
2022/01/03 08:02:01;;;;;;;20.20;15.63;;;10.10;99.90;;;;;;5010739;28;20478;-73
2022/01/03 08:04:28;;;;;;;22.60;14.93;;;10.30;99.90;;;;;;5010447;28;20543;-73
2022/01/03 08:07:10;;;;;;;23.37;15.30;;;10.40;99.90;;;;;;5085787;28;20641;-73
2022/01/03 08:09:38;;;;;;;20.63;15.77;;;10.30;99.90;;;;;;5086844;28;20444;-74
2022/01/03 08:12:06;;;;;;;20.60;14.67;;;10.50;99.90;;;;;;5086789;28;20942;-74
2022/01/03 08:14:33;;;;;;;19.10;14.70;;;10.70;99.90;;;;;;5086826;28;20544;-74
2022/01/03 08:17:00;;;;;;;21.13;14.53;;;10.80;99.90;;;;;;5086592;28;20937;-73
2022/01/03 08:19:27;;;;;;;24.07;15.60;;;11.00;99.90;;;;;;5086542;28;20936;-73
2022/01/03 08:21:54;;;;;;;21.93;14.97;;;11.20;99.90;;;;;;5066157;28;20901;-74
2022/01/03 08:24:23;;;;;;;24.93;15.10;;;11.40;99.90;;;;;;5055633;28;20454;-73
2022/01/03 08:26:50;;;;;;;19.13;14.13;;;11.60;99.90;;;;;;5046163;28;21021;-73
2022/01/03 08:29:17;;;;;;;20.10;13.73;;;11.80;99.90;;;;;;5045697;28;20507;-71
2022/01/03 08:31:44;;;;;;;20.23;14.00;;;11.90;99.90;;;;;;5045822;28;20997;-74
2022/01/03 08:34:12;;;;;;;18.27;13.53;;;12.10;99.90;;;;;;5046398;28;20454;-72
2022/01/03 08:36:39;;;;;;;20.80;14.33;;;12.50;99.90;;;;;;5046098;28;20457;-74
2022/01/03 08:39:07;;;;;;;21.07;14.17;;;12.80;99.90;;;;;;5046290;28;20470;-73
2022/01/03 08:41:35;;;;;;;16.47;12.77;;;13.10;99.90;;;;;;5046125;28;20461;-72
2022/01/03 08:44:03;;;;;;;22.73;14.33;;;13.40;99.90;;;;;;5045883;28;20504;-72
2022/01/03 08:46:30;;;;;;;25.43;19.47;;;13.70;99.90;;;;;;5045969;28;20488;-74
2022/01/03 08:48:57;;;;;;;25.00;20.70;;;13.90;99.90;;;;;;5046059;28;20534;-73
2022/01/03 08:51:25;;;;;;;24.27;18.33;;;14.00;99.90;;;;;;5045736;28;20578;-73
2022/01/03 08:53:52;;;;;;;26.00;19.17;;;14.00;99.90;;;;;;5046011;28;20458;-73
2022/01/03 08:56:19;;;;;;;22.77;18.27;;;14.00;99.90;;;;;;5045549;28;20554;-73
2022/01/03 08:58:48;;;;;;;23.67;18.20;;;14.00;99.90;;;;;;5045461;28;21037;-74
2022/01/03 09:01:15;;;;;;;26.83;17.40;;;13.80;99.90;;;;;;5045648;28;20954;-73
2022/01/03 09:03:42;;;;;;;17.57;13.93;;;13.90;99.90;;;;;;5045809;28;20457;-77
2022/01/03 09:06:09;;;;;;;25.97;18.27;;;14.00;99.90;;;;;;5055521;28;20556;-74
2022/01/03 09:08:37;;;;;;;22.63;18.47;;;14.20;99.90;;;;;;5052522;28;20478;-73
2022/01/03 09:11:04;;;;;;;23.63;17.80;;;14.40;99.90;;;;;;5051340;28;20453;-73
2022/01/03 09:13:31;;;;;;;26.33;17.17;;;14.60;99.90;;;;;;5046243;28;20931;-73
2022/01/03 09:16:04;;;;;;;23.17;17.27;;;14.80;99.90;;;;;;5045535;28;20446;-73
2022/01/03 09:18:32;;;;;;;25.50;17.73;;;14.80;99.90;;;;;;5032126;28;20481;-73
2022/01/03 09:21:00;;;;;;;21.23;17.70;;;14.70;99.90;;;;;;5032180;28;20947;-76
2022/01/03 09:23:30;;;;;;;26.90;16.57;;;14.80;99.90;;;;;;5032036;28;20583;-76
2022/01/03 09:29:15;;;;;;;23.37;19.27;;;14.80;99.90;;;;;;5031568;28;20442;-77
2022/01/03 09:31:49;;;;;;;38.80;32.80;;;15.20;99.90;;;;;;5030489;28;20561;-74
2022/01/03 09:34:16;;;;;;;46.63;36.63;;;15.70;99.90;;;;;;5029845;28;20458;-73
2022/01/03 09:36:44;;;;;;;42.33;34.40;;;16.10;99.90;;;;;;5031753;28;20516;-77
2022/01/03 09:39:11;;;;;;;33.80;30.10;;;16.10;99.90;;;;;;5032033;28;20463;-82
2022/01/03 09:41:44;;;;;;;36.17;30.57;;;16.00;99.90;;;;;;5030416;28;20626;-74
2022/01/03 09:44:12;;;;;;;39.53;29.93;;;15.70;99.90;;;;;;5031814;28;20802;-77
2022/01/03 09:46:41;;;;;;;39.20;27.60;;;15.50;99.90;;;;;;5031835;28;20498;-77
2022/01/03 09:49:11;;;;;;;35.70;28.23;;;15.50;99.90;;;;;;5031664;28;20479;-77
2022/01/03 09:51:40;;;;;;;37.43;33.27;;;15.50;99.90;;;;;;5031695;28;20458;-77
2022/01/03 09:54:10;;;;;;;42.97;36.20;;;15.40;99.90;;;;;;5031755;28;20455;-76
2022/01/03 09:56:39;;;;;;;38.57;33.83;;;15.50;99.90;;;;;;5031764;28;20810;-76
2022/01/03 09:59:08;;;;;;;48.47;35.90;;;15.50;99.90;;;;;;5031161;28;20467;-76
2022/01/03 10:01:36;;;;;;;45.87;34.43;;;15.40;99.90;;;;;;5031101;28;20509;-74
2022/01/03 10:04:04;;;;;;;38.53;28.83;;;15.60;99.90;;;;;;5031244;28;20454;-76
2022/01/03 10:06:36;;;;;;;30.90;25.67;;;15.40;99.90;;;;;;5031107;28;20502;-75
2022/01/03 10:09:03;;;;;;;40.10;27.27;;;15.10;99.90;;;;;;5031167;28;20498;-74
2022/01/03 10:11:31;;;;;;;36.57;27.53;;;15.20;99.90;;;;;;5031135;28;20517;-73
2022/01/03 10:14:00;;;;;;;37.10;29.50;;;15.20;99.90;;;;;;5031386;28;20455;-75
2022/01/03 10:16:28;;;;;;;32.70;28.10;;;15.30;99.90;;;;;;5031118;28;20532;-75
2022/01/03 10:18:55;;;;;;;34.27;27.77;;;15.40;99.90;;;;;;5031056;28;20481;-75
2022/01/03 10:21:38;;;;;;;31.53;27.37;;;15.30;99.90;;;;;;5031086;28;20870;-74
2022/01/03 10:24:06;;;;;;;36.83;27.27;;;15.20;99.90;;;;;;5030791;28;20458;-76
2022/01/03 10:26:34;;;;;;;32.20;23.53;;;15.30;99.90;;;;;;5030187;28;20930;-76
2022/01/03 10:29:12;;;;;;;32.23;23.90;;;15.40;99.90;;;;;;5029909;28;20481;-76
2022/01/03 10:31:41;;;;;;;29.80;25.07;;;15.50;99.90;;;;;;5030894;28;20458;-73
2022/01/03 10:34:12;;;;;;;31.03;22.73;;;15.70;99.90;;;;;;5030808;28;20516;-75
2022/01/03 10:36:42;;;;;;;28.00;21.00;;;15.90;99.90;;;;;;5030584;28;20458;-76
2022/01/03 10:39:17;;;;;;;26.17;21.60;;;16.00;99.90;;;;;;5030431;28;20478;-76
2022/01/03 10:41:45;;;;;;;27.63;21.10;;;16.00;99.90;;;;;;5030419;28;20904;-76
2022/01/03 10:44:28;;;;;;;27.80;22.40;;;16.00;99.90;;;;;;5030762;28;20538;-76
2022/01/03 10:46:55;;;;;;;27.60;22.03;;;15.90;99.90;;;;;;5030015;28;21018;-76
2022/01/03 10:49:27;;;;;;;27.00;20.60;;;15.70;99.90;;;;;;5030382;28;20473;-78
2022/01/03 10:52:17;;;;;;;26.50;21.33;;;15.80;99.90;;;;;;5030387;28;20928;-76
2022/01/03 10:54:46;;;;;;;29.40;22.63;;;15.80;99.90;;;;;;5030338;28;20451;-76
2022/01/03 10:57:15;;;;;;;24.73;20.33;;;16.00;99.90;;;;;;5029763;28;20471;-75
2022/01/03 10:59:42;;;;;;;24.90;19.20;;;16.20;99.90;;;;;;5030114;28;20491;-76
2022/01/03 11:02:12;;;;;;;22.37;19.27;;;16.30;99.90;;;;;;5030409;28;20443;-77
2022/01/03 11:04:46;;;;;;;28.90;19.67;;;16.20;99.90;;;;;;5029888;28;20450;-76
2022/01/03 11:13:09;;;;;;;26.50;20.80;;;15.90;99.90;;;;;;5030293;28;20465;-76
2022/01/03 11:15:36;;;;;;;30.57;20.67;;;15.90;99.90;;;;;;5030281;28;20509;-77
2022/01/03 11:18:16;;;;;;;22.20;18.83;;;15.70;99.90;;;;;;5028473;28;20481;-75
2022/01/03 11:20:44;;;;;;;24.93;20.17;;;15.70;99.90;;;;;;5029970;28;20451;-76
2022/01/03 11:23:20;;;;;;;25.00;18.93;;;15.90;99.90;;;;;;5029900;28;20450;-75
2022/01/03 11:25:49;;;;;;;22.13;18.07;;;16.10;99.90;;;;;;5029334;28;20542;-76
2022/01/03 11:28:16;;;;;;;24.77;18.80;;;16.30;99.80;;;;;;5029248;28;20470;-76
2022/01/03 11:30:45;;;;;;;21.27;17.70;;;16.80;99.90;;;;;;5029698;28;20455;-75
2022/01/03 11:33:14;;;;;;;24.83;18.33;;;17.30;99.30;;;;;;5029607;28;20532;-75
2022/01/03 11:35:47;;;;;;;26.33;17.87;;;17.60;97.70;;;;;;5029556;28;20454;-75
2022/01/03 11:38:19;;;;;;;23.30;18.10;;;17.60;97.40;;;;;;5029623;28;20890;-75
2022/01/03 11:40:46;;;;;;;20.97;16.07;;;17.70;97.60;;;;;;5028853;28;20505;-75
2022/01/03 11:43:14;;;;;;;20.13;16.10;;;18.00;96.90;;;;;;5029376;28;20450;-75
2022/01/03 11:45:42;;;;;;;28.03;19.77;;;18.10;95.80;;;;;;5029250;28;20466;-76
2022/01/03 11:48:11;;;;;;;21.70;15.23;;;18.00;95.60;;;;;;5029438;28;20545;-76
2022/01/03 11:50:39;;;;;;;30.87;17.57;;;17.90;95.90;;;;;;5029986;28;20442;-75
2022/01/03 11:53:08;;;;;;;22.10;17.33;;;18.30;95.50;;;;;;5029500;28;20517;-75
2022/01/03 11:55:40;;;;;;;22.03;16.40;;;18.50;94.10;;;;;;5029230;28;20450;-75
2022/01/03 12:04:09;;;;;;;22.80;16.10;;;19.50;91.80;;;;;;5029429;28;20434;-75
2022/01/03 12:06:36;;;;;;;20.87;15.20;;;19.30;90.90;;;;;;5029038;28;20502;-75
2022/01/03 12:09:06;;;;;;;20.33;14.40;;;19.10;92.10;;;;;;5028584;28;20902;-75
2022/01/03 12:11:41;;;;;;;18.10;14.63;;;19.40;91.60;;;;;;5031023;28;20890;-76
2022/01/03 12:14:11;;;;;;;22.97;15.77;;;19.80;90.60;;;;;;5030355;28;20454;-76
2022/01/03 12:16:52;;;;;;;19.40;15.30;;;20.30;90.30;;;;;;5029014;28;20466;-79
2022/01/03 12:19:32;;;;;;;17.37;14.00;;;20.70;88.50;;;;;;5029089;28;20466;-76
2022/01/03 12:22:11;;;;;;;21.20;14.87;;;21.00;86.00;;;;;;5029301;28;20454;-76
2022/01/03 12:25:00;;;;;;;19.30;15.30;;;21.40;85.10;;;;;;5027441;28;20458;-76
2022/01/03 12:27:37;;;;;;;17.00;14.40;;;21.80;81.70;;;;;;5029018;28;20513;-76
2022/01/03 12:30:23;;;;;;;24.43;16.77;;;21.90;80.90;;;;;;5029123;28;20587;-75
2022/01/03 12:33:19;;;;;;;19.70;15.97;;;22.10;78.80;;;;;;5029216;28;20458;-76
2022/01/03 12:35:49;;;;;;;20.33;16.43;;;22.00;77.80;;;;;;5029250;28;20461;-76
2022/01/03 12:38:23;;;;;;;21.27;15.00;;;21.90;77.10;;;;;;5027684;28;20477;-76
2022/01/03 12:40:58;;;;;;;21.00;16.43;;;21.70;77.00;;;;;;5028965;28;21004;-76
2022/01/03 12:43:36;;;;;;;21.07;16.40;;;21.70;76.90;;;;;;5028973;28;20454;-75
2022/01/03 12:46:14;;;;;;;19.80;15.70;;;21.80;75.90;;;;;;5028864;28;20542;-76
2022/01/03 12:48:41;;;;;;;24.30;16.30;;;21.80;75.90;;;;;;5027886;28;20524;-76
2022/01/03 12:51:17;;;;;;;21.27;16.53;;;21.60;74.00;;;;;;5028793;28;20525;-76
2022/01/03 12:53:56;;;;;;;27.70;16.60;;;21.30;74.70;;;;;;5032367;28;20484;-78
2022/01/03 12:56:31;;;;;;;20.37;17.80;;;21.20;75.00;;;;;;5032378;28;20456;-76
2022/01/03 12:59:10;;;;;;;24.40;15.73;;;21.10;76.10;;;;;;5032455;28;20851;-77
2022/01/03 13:01:38;;;;;;;21.63;16.00;;;21.20;75.30;;;;;;5041574;28;20651;-77
2022/01/03 13:04:24;;;;;;;19.10;15.37;;;21.30;75.50;;;;;;5050874;28;20449;-75